createdAt,value
2023-01-18T00:08:52.299Z,1
2023-01-18T00:18:52.249Z,1
2023-01-18T00:28:52.186Z,1
2023-01-18T00:38:52.207Z,1
2023-01-18T00:48:52.004Z,1
2023-01-18T00:58:52.001Z,1
2023-01-18T01:08:51.898Z,1
2023-01-18T01:18:51.813Z,1
2023-01-18T01:28:51.750Z,1
2023-01-18T01:38:51.763Z,1
2023-01-18T01:48:51.574Z,1
2023-01-18T01:58:52.538Z,1
2023-01-18T02:08:51.470Z,1
2023-01-18T02:18:51.403Z,1
2023-01-18T02:28:51.296Z,1
2023-01-18T02:38:51.358Z,1
2023-01-18T02:48:51.133Z,1
2023-01-18T02:58:51.109Z,1
2023-01-18T03:08:51.010Z,1
2023-01-18T03:18:50.943Z,1
2023-01-18T03:28:50.955Z,1
2023-01-18T03:38:50.796Z,5
2023-01-18T03:48:50.710Z,4
2023-01-18T03:58:50.655Z,1
2023-01-18T04:08:50.582Z,8
2023-01-18T04:18:50.491Z,1
2023-01-18T04:28:50.445Z,5
2023-01-18T04:38:50.366Z,1
2023-01-18T04:48:50.274Z,11
2023-01-18T04:58:50.218Z,1
2023-01-18T05:08:50.145Z,1
2023-01-18T05:18:50.148Z,1
2023-01-18T05:28:50.001Z,1
2023-01-18T05:38:49.920Z,3
2023-01-18T05:48:49.861Z,1
2023-01-18T05:58:49.749Z,1
2023-01-18T06:08:49.684Z,1
2023-01-18T06:18:49.602Z,1
2023-01-18T06:28:49.532Z,1
2023-01-18T06:38:49.503Z,1
2023-01-18T06:48:50.396Z,1
2023-01-18T06:58:49.318Z,12
2023-01-18T07:08:49.287Z,2
2023-01-18T07:18:49.183Z,1
2023-01-18T07:28:49.128Z,11
2023-01-18T07:38:49.040Z,20
2023-01-18T07:48:48.955Z,21
2023-01-18T07:58:48.891Z,10
2023-01-18T08:08:48.828Z,7
2023-01-18T08:18:48.745Z,13
2023-01-18T08:28:48.662Z,13
2023-01-18T08:38:48.589Z,15
2023-01-18T08:48:48.673Z,18
2023-01-18T08:58:48.543Z,20
2023-01-18T09:08:48.368Z,33
2023-01-18T09:18:48.297Z,24
2023-01-18T09:28:48.331Z,26
2023-01-18T09:38:48.179Z,37
2023-01-18T09:48:48.090Z,53
2023-01-18T09:58:48.019Z,58
2023-01-18T10:08:48.005Z,52
2023-01-18T10:18:47.980Z,41
2023-01-18T10:28:47.780Z,52
2023-01-18T10:38:47.710Z,57
2023-01-18T10:48:47.675Z,62
2023-01-18T10:58:47.583Z,49
2023-01-18T11:08:47.523Z,44
2023-01-18T11:18:47.456Z,53
2023-01-18T11:28:47.357Z,54
2023-01-18T11:38:47.274Z,63
2023-01-18T11:48:47.242Z,68
2023-01-18T11:58:47.231Z,57
2023-01-18T12:08:47.079Z,59
2023-01-18T12:18:47.030Z,58
2023-01-18T12:28:46.929Z,67
2023-01-18T12:38:46.880Z,85
2023-01-18T12:48:46.819Z,97
2023-01-18T12:58:46.719Z,99
2023-01-18T13:08:46.660Z,99
2023-01-18T13:18:46.594Z,99
2023-01-18T13:28:46.487Z,99
2023-01-18T13:38:46.413Z,99
2023-01-18T13:48:46.515Z,99
2023-01-18T13:58:46.305Z,99
2023-01-18T14:08:46.222Z,99
2023-01-18T14:18:46.120Z,99
2023-01-18T14:28:46.055Z,99
2023-01-18T14:38:45.984Z,99
2023-01-18T14:48:45.939Z,99
2023-01-18T14:58:45.876Z,99
2023-01-18T15:08:45.811Z,99
2023-01-18T15:18:45.693Z,99
2023-01-18T15:28:45.619Z,99
2023-01-18T15:38:45.587Z,99
2023-01-18T15:48:45.473Z,99
2023-01-18T15:58:45.412Z,99
2023-01-18T16:08:45.361Z,99
2023-01-18T16:18:45.281Z,99
2023-01-18T16:28:45.223Z,99
2023-01-18T16:38:45.145Z,99
2023-01-18T16:48:45.056Z,99
2023-01-18T16:58:45.008Z,99
2023-01-18T17:08:44.891Z,1
2023-01-18T17:18:44.863Z,1
2023-01-18T17:28:44.792Z,1
2023-01-18T17:38:44.698Z,1
2023-01-18T17:48:44.679Z,1
2023-01-18T17:58:44.596Z,1
2023-01-18T18:08:44.470Z,1
2023-01-18T18:18:44.538Z,1
2023-01-18T18:28:44.331Z,1
2023-01-18T18:38:44.284Z,1
2023-01-18T18:48:44.194Z,1
2023-01-18T18:58:44.160Z,1
2023-01-18T19:08:44.071Z,1
2023-01-18T19:18:44.137Z,1
2023-01-18T19:28:43.913Z,1
2023-01-18T19:38:46.151Z,1
2023-01-18T19:48:43.763Z,1
2023-01-18T19:58:43.710Z,1
2023-01-18T20:08:43.639Z,1
2023-01-18T20:18:43.527Z,1
2023-01-18T20:28:43.476Z,1
2023-01-18T20:38:43.426Z,99
2023-01-18T20:48:43.355Z,99
2023-01-18T20:58:43.249Z,99
2023-01-18T21:08:43.201Z,99
2023-01-18T21:18:43.097Z,85
2023-01-18T21:28:43.056Z,75
2023-01-18T21:38:42.940Z,59
2023-01-18T21:48:42.877Z,30
2023-01-18T21:58:42.898Z,28
2023-01-18T22:08:42.732Z,31
2023-01-18T22:18:42.657Z,3
2023-01-18T22:28:42.584Z,1
2023-01-18T22:38:42.510Z,1
2023-01-18T22:48:42.480Z,1
2023-01-18T22:58:42.463Z,1
2023-01-18T23:08:42.322Z,1
2023-01-18T23:18:42.217Z,1
2023-01-18T23:28:42.146Z,1
2023-01-18T23:38:42.096Z,1
2023-01-18T23:48:42.035Z,1
2023-01-18T23:58:42.062Z,1
